Terminal Aerodrome Forecast
Issued by NWS

Home | Current Version | Previous Version | Text Only | Print | Product List | Glossary On
Versions: 1 2 3 4 5 6 7 8 9 10 11 12 13 14 15 16 17 18 19 20 21 22 23 24 25
000
FTUS43 KDTX 070522
TAFPTK
TAF
KPTK 070522Z 0706/0806 19008KT P6SM SCT060 OVC120
     FM071300 21010KT 6SM -SHRA OVC040
     FM071600 25010KT 3SM SHRA OVC015
     FM072000 32012KT P6SM BKN035 OVC080
     FM072300 36008KT P6SM SCT045=

USA.gov is the U.S. government's official web portal to all federal, state and local government web resources and services.